Terminal Aerodrome Forecast
Issued by NWS

Home | Current Version | Previous Version | Text Only | Print | Product List | Glossary On
Versions: 1 2 3 4 5 6 7 8 9 10 11 12 13 14 15 16 17 18 19 20 21 22 23 24 25 26 27 28 29 30 31
000
FTUS45 KSLC 240208 AAA
TAFOGD
TAF AMD
KOGD 240208Z 2402/2424 16008KT P6SM SCT090 SCT130
      TEMPO 2402/2403 VRB20G32KT P6SM -TSRA SCT090CB BKN120
     FM240400 17009KT P6SM SCT130 SCT200
     FM241400 30010KT P6SM FEW150=

USA.gov is the U.S. government's official web portal to all federal, state and local government web resources and services.